Bridgeport, NE

12:13 AM MDT on July 31, 2014 (GMT -0600)
Alliance Municipal (KAIA) Elev 3930 ft | 42.06 °N, 102.80 °W | Change Station

Current weather conditions updated 20 minutes ago

Clear
Clear
61 °F
Feels Like 61 °F
N
6
Wind Variable Wind from West

Today is forecast to be Warmer than yesterday.

Today
High -- | Low -- °F
--% Chance of Precip.
Yesterday
High -- | Low -- °F
Precip. -- in
5:45 AM 8:11 PM
Waxing Crescent, 16% visible
Pressure 30.21 in
Visibility 10.0 miles
Clouds Clear
Dew Point 55 °F
Humidity 82%
Rainfall 0.00 in
Snow Depth Not available.
UV 0 out of 12
Pollen 4.00 out of 12
Air Quality Not available.
Flu Activity Not available.
METAR KAIA 310553Z AUTO 26005KT 10SM CLR 16/13 A3021

More Conditions Fewer Conditions

Pressure 30.21 in
Visibility 10.0 miles
Clouds Clear
Dew Point 55 °F
Humidity 82%
Rainfall 0.00 in
Snow Depth Not available.
UV 0 out of 12
Pollen 4.00 out of 12
Air Quality Not available.
Flu Activity Not available.
METAR KAIA 310553Z AUTO 26005KT 10SM CLR 16/13 A3021

More Conditions Fewer Conditions

10-Day Weather Forecast

Almanac

Astronomy

Jul. 31, 2014 Rise Set
Actual Time 5:45 AM MDT 8:11 PM MDT
Civil Twilight 5:14 AM MDT 8:42 PM MDT
Nautical Twilight 4:35 AM MDT 9:21 PM MDT
Astronomical Twilight 3:51 AM MDT 10:04 PM MDT
Moon 10:19 AM MDT 10:20 PM MDT
Length of Visible Light 15h 28m
Length of Day
14h 25m
Tomorrow will be 2m 6s shorter.
Waxing Crescent, 16% of the Moon is Illuminated
Today
Waxing Crescent
Aug 3
First Quarter
Aug 10
Full
Aug 17
Last Quarter
Aug 25
New

Today's Extremes

State Highs State Lows

Community

WunderPhotos

Upload Photos

1,739,251 photos uploaded!

Nearby

Snow Depth

Station Depth Elevation
No new snow has been reported.

Earthquake Activity

City Distance Mag. Time & Date
No recent earthquake activity has been reported nearby.
Minimum magnitude displayed is 2.5.

Coastal Water Temperatures

Place Temperature
No Stations Reporting

Nearby Weather Stations

Station Location Temp. Dew Point Humidity Wind Precip. Elev Updated Type
The Clinger Family, Bridgeport, NE 62.7 °F 58 °F 84% SW  at  0.0 mph - / hr 3666 ft 12:05 AM MDT Normal
Bridgeport Ampride/Panhandle Coop, Bridgeport, NE 62.2 °F 58 °F 85% ESE  at  0.0 mph 0.00 in / hr 3671 ft 12:05 AM MDT Normal
MesoWest TOWER1 , Bridgeport, NE 62 °F - - North  at  0 mph 0.00 in / hr 3624 ft 11:00 PM MDT MADIS
HADS NORTHPORT CANAL AT RED WILLOW FL NE, Bayard, NE 62 °F - - North  at  - 0.00 in / hr 3959 ft 11:30 PM MDT MADIS
Panhandle Coop/Dalton, Dalton, NE 58.5 °F 57 °F 93% SW  at  0.0 mph 0.00 in / hr 4321 ft 12:01 AM MDT Normal
Wayne Rd., Alliance, NE 63.2 °F 58 °F 83% West  at  4.0 mph 0.00 in / hr 4091 ft 12:00 AM MDT Normal

Show More Stations Show Fewer Stations